createdAt,value
2018-09-30T00:00:29.127Z,73.90
2018-09-30T00:02:57.916Z,73.90
2018-09-30T00:05:26.724Z,73.90
2018-09-30T00:07:55.526Z,74.30
2018-09-30T00:10:24.303Z,74.70
2018-09-30T00:12:53.127Z,74.70
2018-09-30T00:15:21.916Z,74.90
2018-09-30T00:17:50.721Z,75.10
2018-09-30T00:20:19.508Z,75.10
2018-09-30T00:22:48.316Z,75.40
2018-09-30T00:25:22.401Z,75.40
2018-09-30T00:27:51.236Z,75.50
2018-09-30T00:30:20.049Z,75.70
2018-09-30T00:32:48.828Z,75.70
2018-09-30T00:35:17.648Z,75.80
2018-09-30T00:37:46.439Z,76.00
2018-09-30T00:40:15.244Z,76.10
2018-09-30T00:42:44.016Z,76.10
2018-09-30T00:45:12.820Z,76.20
2018-09-30T00:47:41.669Z,76.30
2018-09-30T00:50:10.508Z,76.40
2018-09-30T00:52:39.295Z,76.50
2018-09-30T00:55:08.104Z,77.00
2018-09-30T00:57:36.865Z,76.80
2018-09-30T01:00:06.000Z,76.90
2018-09-30T01:02:34.768Z,77.00
2018-09-30T01:05:03.617Z,76.90
2018-09-30T01:07:32.384Z,76.80
2018-09-30T01:10:01.192Z,76.90
2018-09-30T01:12:30.016Z,77.00
2018-09-30T01:14:58.804Z,77.20
2018-09-30T01:17:27.584Z,77.40
2018-09-30T01:19:56.437Z,77.50
2018-09-30T01:22:25.239Z,77.60
2018-09-30T01:24:54.040Z,77.70
2018-09-30T01:27:22.813Z,77.80
2018-09-30T01:29:51.612Z,77.90
2018-09-30T01:32:20.404Z,78.00
2018-09-30T01:34:49.216Z,78.10
2018-09-30T01:37:17.991Z,78.30
2018-09-30T01:39:46.780Z,78.40
2018-09-30T01:42:15.544Z,78.40
2018-09-30T01:44:44.337Z,78.50
2018-09-30T01:47:13.099Z,79.60
2018-09-30T01:49:41.900Z,78.80
2018-09-30T01:52:21.765Z,78.90
2018-09-30T01:54:50.556Z,78.90
2018-09-30T01:57:19.324Z,79.70
2018-09-30T01:59:48.124Z,79.10
2018-09-30T02:02:16.879Z,79.00
2018-09-30T02:04:45.920Z,79.20
2018-09-30T02:07:14.773Z,79.20
2018-09-30T02:09:43.623Z,79.30
2018-09-30T02:12:12.467Z,79.20
2018-09-30T02:14:41.636Z,79.20
2018-09-30T02:17:10.404Z,79.20
2018-09-30T02:19:39.205Z,79.20
2018-09-30T02:22:07.988Z,79.30
2018-09-30T02:24:36.784Z,79.40
2018-09-30T02:27:05.556Z,79.60
2018-09-30T02:29:34.362Z,79.60
2018-09-30T02:32:03.170Z,79.60
2018-09-30T02:34:31.978Z,79.80
2018-09-30T02:37:00.744Z,80.00
2018-09-30T02:39:29.528Z,80.10
2018-09-30T02:41:58.329Z,80.20
2018-09-30T02:44:27.216Z,80.30
2018-09-30T02:46:56.013Z,80.20
2018-09-30T02:49:24.769Z,80.30
2018-09-30T02:51:53.592Z,80.30
2018-09-30T02:54:22.372Z,80.50
2018-09-30T02:56:51.505Z,80.60
2018-09-30T02:59:20.587Z,80.60
2018-09-30T03:01:49.520Z,80.70
2018-09-30T03:04:18.368Z,80.80
2018-09-30T03:06:52.524Z,81.60
2018-09-30T03:09:21.308Z,80.90
2018-09-30T03:11:50.133Z,81.00
2018-09-30T03:14:18.935Z,81.10
2018-09-30T03:16:47.735Z,81.20
2018-09-30T03:19:16.734Z,81.30
2018-09-30T03:21:45.535Z,81.20
2018-09-30T03:24:14.332Z,81.30
2018-09-30T03:26:43.188Z,81.40
2018-09-30T03:29:12.049Z,81.60
2018-09-30T03:31:40.855Z,81.60
2018-09-30T03:34:09.640Z,82.40
2018-09-30T03:36:38.441Z,81.60
2018-09-30T03:39:08.440Z,81.80
2018-09-30T03:41:37.268Z,81.70
2018-09-30T03:44:16.076Z,81.80
2018-09-30T03:46:44.884Z,81.90
2018-09-30T03:49:13.687Z,81.90
2018-09-30T03:51:42.516Z,81.90
2018-09-30T03:54:11.304Z,81.90
2018-09-30T03:56:40.147Z,82.10
2018-09-30T03:59:08.924Z,82.20
2018-09-30T04:01:37.727Z,82.20
2018-09-30T04:04:06.543Z,82.20
2018-09-30T04:06:35.349Z,82.40
2018-09-30T04:09:04.553Z,82.40
2018-09-30T04:11:33.420Z,82.40
2018-09-30T04:14:02.305Z,82.40
2018-09-30T04:16:31.172Z,81.90
2018-09-30T04:18:59.991Z,82.30
2018-09-30T04:21:28.773Z,82.30
2018-09-30T04:24:16.068Z,82.50
2018-09-30T04:26:44.864Z,82.60
2018-09-30T04:29:13.668Z,82.70
2018-09-30T04:31:42.448Z,82.60
2018-09-30T04:34:11.316Z,82.70
2018-09-30T04:36:40.099Z,82.70
2018-09-30T04:39:09.760Z,82.70
2018-09-30T04:41:38.749Z,82.70
2018-09-30T04:44:07.901Z,82.70
2018-09-30T04:46:36.961Z,82.70
2018-09-30T04:49:06.093Z,82.80
2018-09-30T04:51:35.189Z,82.90
2018-09-30T04:54:04.327Z,83.00
2018-09-30T04:56:33.390Z,83.00
2018-09-30T04:59:02.468Z,83.10
2018-09-30T05:01:31.569Z,83.10
2018-09-30T05:04:00.715Z,83.40
2018-09-30T05:06:29.880Z,83.40
2018-09-30T05:08:58.914Z,83.40
2018-09-30T05:11:27.965Z,83.70
2018-09-30T05:13:57.121Z,83.40
2018-09-30T05:16:26.379Z,83.50
2018-09-30T05:18:55.462Z,83.50
2018-09-30T05:21:24.552Z,83.60
2018-09-30T05:23:53.646Z,83.50
2018-09-30T05:26:22.713Z,83.60
2018-09-30T05:28:51.849Z,83.60
2018-09-30T05:31:20.916Z,83.60
2018-09-30T05:33:49.979Z,84.20
2018-09-30T05:36:19.046Z,83.60
2018-09-30T05:38:48.161Z,83.60
2018-09-30T05:41:17.296Z,83.60
2018-09-30T05:43:46.303Z,83.60
2018-09-30T05:46:15.533Z,82.80
2018-09-30T05:48:44.645Z,83.50
2018-09-30T05:51:13.729Z,83.60
2018-09-30T05:53:42.805Z,83.60
2018-09-30T05:56:11.852Z,83.70
2018-09-30T05:58:40.949Z,83.70
2018-09-30T06:01:10.019Z,83.80
2018-09-30T06:03:39.117Z,83.40
2018-09-30T06:06:08.162Z,83.80
2018-09-30T06:08:37.272Z,83.80
2018-09-30T06:11:06.425Z,83.80
2018-09-30T06:13:35.538Z,83.90
2018-09-30T06:16:04.756Z,83.90
2018-09-30T06:18:33.793Z,84.10
2018-09-30T06:21:03.023Z,84.00
2018-09-30T06:23:32.416Z,84.10
2018-09-30T06:26:01.798Z,84.10
2018-09-30T06:28:31.121Z,84.20
2018-09-30T06:31:00.250Z,84.20
2018-09-30T06:33:29.769Z,84.20
2018-09-30T06:35:59.072Z,84.30
2018-09-30T06:38:28.588Z,84.30
2018-09-30T06:40:58.760Z,84.30
2018-09-30T06:43:28.263Z,84.50
2018-09-30T06:45:57.333Z,84.50
2018-09-30T06:48:26.444Z,84.50
2018-09-30T06:50:55.528Z,84.70
2018-09-30T06:53:24.613Z,84.60
2018-09-30T06:55:53.733Z,84.70
2018-09-30T06:58:22.773Z,84.70
2018-09-30T07:00:51.953Z,84.80
2018-09-30T07:03:20.932Z,84.80
2018-09-30T07:05:50.073Z,84.80
2018-09-30T07:08:19.230Z,84.90
2018-09-30T07:10:48.512Z,85.60
2018-09-30T07:13:17.601Z,84.50
2018-09-30T07:15:46.686Z,85.40
2018-09-30T07:18:15.777Z,84.40
2018-09-30T07:20:44.870Z,84.00
2018-09-30T07:23:14.281Z,83.60
2018-09-30T07:25:43.594Z,83.10
2018-09-30T07:28:12.910Z,82.10
2018-09-30T07:30:43.582Z,81.40
2018-09-30T07:33:13.202Z,80.80
2018-09-30T07:35:42.894Z,80.10
2018-09-30T07:38:13.449Z,79.20
2018-09-30T07:40:42.923Z,78.50
2018-09-30T07:43:13.028Z,77.80
2018-09-30T07:45:44.043Z,76.80
2018-09-30T07:48:13.631Z,76.30
2018-09-30T07:50:43.057Z,75.40
2018-09-30T07:53:12.523Z,74.20
2018-09-30T07:55:42.640Z,73.00
2018-09-30T07:58:11.978Z,72.00
2018-09-30T08:00:41.073Z,70.60
2018-09-30T08:03:10.608Z,69.70
2018-09-30T08:05:39.743Z,68.20
2018-09-30T08:08:09.038Z,67.50
2018-09-30T08:10:38.938Z,66.20
2018-09-30T08:13:08.838Z,64.80
2018-09-30T08:15:38.083Z,62.50
2018-09-30T08:18:17.834Z,61.40
2018-09-30T08:20:47.531Z,60.30
2018-09-30T08:23:17.517Z,59.40
2018-09-30T08:25:46.891Z,58.80
2018-09-30T08:28:16.579Z,58.20
2018-09-30T08:30:45.733Z,57.40
2018-09-30T08:33:14.761Z,57.60
2018-09-30T08:35:49.193Z,57.00
2018-09-30T08:38:23.478Z,56.50
2018-09-30T08:41:04.809Z,56.10
2018-09-30T08:43:35.957Z,55.50
2018-09-30T08:46:05.051Z,55.20
2018-09-30T08:48:34.269Z,54.70
2018-09-30T08:51:03.713Z,54.30
2018-09-30T08:53:33.076Z,54.00
2018-09-30T08:56:02.329Z,53.80
2018-09-30T08:58:31.549Z,53.80
2018-09-30T09:01:00.622Z,53.50
2018-09-30T09:03:29.723Z,53.20
2018-09-30T09:05:58.902Z,53.10
2018-09-30T09:08:28.157Z,52.80
2018-09-30T09:10:57.237Z,52.70
2018-09-30T09:13:26.440Z,52.60
2018-09-30T09:15:55.517Z,52.30
2018-09-30T09:18:24.720Z,52.10
2018-09-30T09:20:53.801Z,51.80
2018-09-30T09:23:22.985Z,51.80
2018-09-30T09:25:52.125Z,51.60
2018-09-30T09:28:21.173Z,51.60
2018-09-30T09:30:50.879Z,51.30
2018-09-30T09:33:20.009Z,51.20
2018-09-30T09:35:49.112Z,51.30
2018-09-30T09:38:18.157Z,51.20
2018-09-30T09:40:48.159Z,51.10
2018-09-30T09:43:17.212Z,51.10
2018-09-30T09:45:46.272Z,51.10
2018-09-30T09:48:15.317Z,51.10
2018-09-30T09:50:44.860Z,50.90
2018-09-30T09:53:14.455Z,50.80
2018-09-30T09:55:43.562Z,50.70
2018-09-30T09:58:12.620Z,50.60
2018-09-30T10:00:43.613Z,50.70
2018-09-30T10:03:13.470Z,50.70
2018-09-30T10:05:42.614Z,50.70
2018-09-30T10:08:11.739Z,50.60
2018-09-30T10:10:40.882Z,50.50
2018-09-30T10:13:10.377Z,50.30
2018-09-30T10:15:39.396Z,50.30
2018-09-30T10:18:08.598Z,50.30
2018-09-30T10:20:37.718Z,50.10
2018-09-30T10:23:06.820Z,50.10
2018-09-30T10:25:35.887Z,49.80
2018-09-30T10:28:05.041Z,49.60
2018-09-30T10:30:34.138Z,49.40
2018-09-30T10:33:03.329Z,49.40
2018-09-30T10:35:32.638Z,49.30
2018-09-30T10:38:01.761Z,49.20
2018-09-30T10:40:30.793Z,49.00
2018-09-30T10:43:00.077Z,49.10
2018-09-30T10:45:29.110Z,48.90
2018-09-30T10:47:58.249Z,48.80
2018-09-30T10:50:27.674Z,48.50
2018-09-30T10:52:56.761Z,48.30
2018-09-30T10:55:25.987Z,48.10
2018-09-30T10:57:55.029Z,48.10
2018-09-30T11:00:24.316Z,48.00
2018-09-30T11:02:53.739Z,47.70
2018-09-30T11:05:23.125Z,47.50
2018-09-30T11:07:52.197Z,47.40
2018-09-30T11:10:21.317Z,47.50
2018-09-30T11:12:50.454Z,47.40
2018-09-30T11:15:19.477Z,47.30
2018-09-30T11:17:48.570Z,47.20
2018-09-30T11:20:18.060Z,47.10
2018-09-30T11:22:47.147Z,47.10
2018-09-30T11:25:16.261Z,46.70
2018-09-30T11:27:45.433Z,46.50
2018-09-30T11:30:14.548Z,46.30
2018-09-30T11:32:43.660Z,46.10
2018-09-30T11:35:12.810Z,45.90
2018-09-30T11:37:42.038Z,45.70
2018-09-30T11:40:11.164Z,45.50
2018-09-30T11:42:40.316Z,45.20
2018-09-30T11:45:09.439Z,45.10
2018-09-30T11:47:38.590Z,45.20
2018-09-30T11:50:07.693Z,45.10
2018-09-30T11:52:36.803Z,44.70
2018-09-30T11:55:05.998Z,44.40
2018-09-30T11:57:35.083Z,44.30
2018-09-30T12:00:04.207Z,44.20
2018-09-30T12:02:33.369Z,44.20
2018-09-30T12:05:02.478Z,44.00
2018-09-30T12:07:31.620Z,43.50
2018-09-30T12:10:00.970Z,43.30
2018-09-30T12:12:30.069Z,43.10
2018-09-30T12:14:59.737Z,43.00
2018-09-30T12:17:29.043Z,42.80
2018-09-30T12:19:58.354Z,42.60
2018-09-30T12:22:27.449Z,42.50
2018-09-30T12:24:56.678Z,42.50
2018-09-30T12:27:25.865Z,42.30
2018-09-30T12:29:55.039Z,42.20
2018-09-30T12:32:24.150Z,42.20
2018-09-30T12:34:53.777Z,41.70
2018-09-30T12:37:22.953Z,41.50
2018-09-30T12:39:52.041Z,41.30
2018-09-30T12:42:21.096Z,41.30
2018-09-30T12:44:50.339Z,41.10
2018-09-30T12:47:19.979Z,40.80
2018-09-30T12:49:49.589Z,40.60
2018-09-30T12:52:19.038Z,40.40
2018-09-30T12:54:48.501Z,40.30
2018-09-30T12:57:18.058Z,39.90
2018-09-30T12:59:48.319Z,39.80
2018-09-30T13:02:17.437Z,39.90
2018-09-30T13:04:46.464Z,40.00
2018-09-30T13:07:32.091Z,39.80
2018-09-30T13:10:01.189Z,39.40
2018-09-30T13:12:30.477Z,39.30
2018-09-30T13:14:59.631Z,39.20
2018-09-30T13:17:33.966Z,39.10
2018-09-30T13:20:04.027Z,39.30
2018-09-30T13:22:34.433Z,39.20
2018-09-30T13:25:03.698Z,39.10
2018-09-30T13:30:26.615Z,39.20
2018-09-30T13:32:55.730Z,38.70
2018-09-30T13:35:30.535Z,39.00
2018-09-30T13:37:59.671Z,38.80
2018-09-30T13:40:29.133Z,38.80
2018-09-30T13:45:55.419Z,38.90
2018-09-30T13:48:31.253Z,39.00
2018-09-30T13:51:00.311Z,39.00
2018-09-30T13:53:29.394Z,38.70
2018-09-30T13:55:58.493Z,38.80
2018-09-30T13:58:27.922Z,38.50
2018-09-30T14:00:57.473Z,39.00
2018-09-30T14:03:26.604Z,39.00
2018-09-30T14:05:55.772Z,39.00
2018-09-30T14:08:24.993Z,39.20
2018-09-30T14:10:55.082Z,39.00
2018-09-30T14:13:24.213Z,39.00
2018-09-30T14:15:53.493Z,39.00
2018-09-30T14:18:22.662Z,39.40
2018-09-30T14:20:59.065Z,39.40
2018-09-30T14:23:28.153Z,39.40
2018-09-30T14:25:57.398Z,39.00
2018-09-30T14:28:26.481Z,39.00
2018-09-30T14:30:55.622Z,39.00
2018-09-30T14:33:24.725Z,39.30
2018-09-30T14:35:53.844Z,39.60
2018-09-30T14:38:22.925Z,39.50
2018-09-30T14:40:52.070Z,39.30
2018-09-30T14:43:21.260Z,39.20
2018-09-30T14:45:50.570Z,39.20
2018-09-30T14:48:19.662Z,39.20
2018-09-30T14:50:48.716Z,39.20
2018-09-30T14:53:17.870Z,39.40
2018-09-30T14:55:47.028Z,39.60
2018-09-30T14:58:16.079Z,39.50
2018-09-30T15:00:45.198Z,39.80
2018-09-30T15:03:14.309Z,40.70
2018-09-30T15:05:43.484Z,40.10
2018-09-30T15:08:12.626Z,40.30
2018-09-30T15:10:41.710Z,41.10
2018-09-30T15:13:10.913Z,41.70
2018-09-30T15:15:40.050Z,42.40
2018-09-30T15:18:09.177Z,42.50
2018-09-30T15:20:38.850Z,42.50
2018-09-30T15:23:08.434Z,42.50
2018-09-30T15:25:37.584Z,42.20
2018-09-30T15:28:06.846Z,42.40
2018-09-30T15:30:35.960Z,43.10
2018-09-30T15:33:05.025Z,43.30
2018-09-30T15:35:34.194Z,43.10
2018-09-30T15:38:05.484Z,43.00
2018-09-30T15:40:34.657Z,42.90
2018-09-30T15:43:03.781Z,42.70
2018-09-30T15:45:32.885Z,42.70
2018-09-30T15:48:02.022Z,43.00
2018-09-30T15:50:31.125Z,43.20
2018-09-30T15:53:00.257Z,43.40
2018-09-30T15:55:29.409Z,44.00
2018-09-30T15:57:58.555Z,44.60
2018-09-30T16:00:27.669Z,45.00
2018-09-30T16:02:56.730Z,44.80
2018-09-30T16:05:27.781Z,44.60
2018-09-30T16:07:56.877Z,44.60
2018-09-30T16:10:26.153Z,44.40
2018-09-30T16:12:55.326Z,44.90
2018-09-30T16:15:28.950Z,46.10
2018-09-30T16:17:58.074Z,46.80
2018-09-30T16:20:27.265Z,47.20
2018-09-30T16:22:56.400Z,48.80
2018-09-30T16:25:25.575Z,49.40
2018-09-30T16:27:54.662Z,50.40
2018-09-30T16:30:23.770Z,51.00
2018-09-30T16:32:52.868Z,51.30
2018-09-30T16:35:21.940Z,51.80
2018-09-30T16:37:51.086Z,52.40
2018-09-30T16:40:20.257Z,52.70
2018-09-30T16:42:49.692Z,53.20
2018-09-30T16:45:18.824Z,53.50
2018-09-30T16:47:47.999Z,53.90
2018-09-30T16:50:17.277Z,54.30
2018-09-30T16:52:46.458Z,54.60
2018-09-30T16:55:16.186Z,55.00
2018-09-30T16:57:45.296Z,55.20
2018-09-30T17:00:14.349Z,55.70
2018-09-30T17:02:43.546Z,55.80
2018-09-30T17:05:12.591Z,56.10
2018-09-30T17:07:41.849Z,56.60
2018-09-30T17:10:10.885Z,57.10
2018-09-30T17:12:40.025Z,57.10
2018-09-30T17:15:09.365Z,57.20
2018-09-30T17:17:38.569Z,57.70
2018-09-30T17:20:07.797Z,57.90
2018-09-30T17:22:37.269Z,58.40
2018-09-30T17:25:06.724Z,58.80
2018-09-30T17:27:36.376Z,59.00
2018-09-30T17:30:05.506Z,59.10
2018-09-30T17:32:34.626Z,59.20
2018-09-30T17:35:04.133Z,59.50
2018-09-30T17:37:33.193Z,60.00
2018-09-30T17:40:02.358Z,60.00
2018-09-30T17:42:32.833Z,60.10
2018-09-30T17:45:03.666Z,60.90
2018-09-30T17:47:32.715Z,61.20
2018-09-30T17:50:02.239Z,61.50
2018-09-30T17:52:31.836Z,61.80
2018-09-30T17:55:08.392Z,62.20
2018-09-30T17:57:40.031Z,62.40
2018-09-30T18:00:09.225Z,62.60
2018-09-30T18:02:58.619Z,63.00
2018-09-30T18:05:27.706Z,63.10
2018-09-30T18:07:56.843Z,63.30
2018-09-30T18:10:25.942Z,63.50
2018-09-30T18:12:55.068Z,63.80
2018-09-30T18:15:24.150Z,64.30
2018-09-30T18:17:53.300Z,64.40
2018-09-30T18:20:22.369Z,64.80
2018-09-30T18:22:51.823Z,65.30
2018-09-30T18:25:20.823Z,65.60
2018-09-30T18:27:49.965Z,65.60
2018-09-30T18:30:19.152Z,65.70
2018-09-30T18:32:48.251Z,66.00
2018-09-30T18:35:17.293Z,66.10
2018-09-30T18:37:46.417Z,66.60
2018-09-30T18:40:15.751Z,66.80
2018-09-30T18:42:47.110Z,66.90
2018-09-30T18:45:40.513Z,67.20
2018-09-30T18:48:10.222Z,67.30
2018-09-30T18:50:39.614Z,67.50
2018-09-30T18:53:08.888Z,67.70
2018-09-30T18:55:38.040Z,67.90
2018-09-30T18:58:07.242Z,68.00
2018-09-30T19:00:36.321Z,69.00
2018-09-30T19:03:05.470Z,69.30
2018-09-30T19:05:34.634Z,68.90
2018-09-30T19:08:03.837Z,68.90
2018-09-30T19:10:32.869Z,69.00
2018-09-30T19:18:57.468Z,69.60
2018-09-30T19:21:26.474Z,69.60
2018-09-30T19:23:55.457Z,69.80
2018-09-30T19:26:24.498Z,70.10
2018-09-30T19:28:53.521Z,70.50
2018-09-30T19:31:22.944Z,70.70
2018-09-30T19:33:52.142Z,71.00
2018-09-30T19:36:21.558Z,71.20
2018-09-30T19:38:50.602Z,71.50
2018-09-30T19:41:20.137Z,71.80
2018-09-30T19:43:52.958Z,72.00
2018-09-30T19:46:32.200Z,72.10
2018-09-30T19:49:01.522Z,72.40
2018-09-30T19:51:31.434Z,72.60
2018-09-30T19:54:00.933Z,72.90
2018-09-30T19:56:30.329Z,73.10
2018-09-30T19:59:12.872Z,73.10
2018-09-30T20:01:42.182Z,73.30
2018-09-30T20:04:11.443Z,73.50
2018-09-30T20:06:40.497Z,73.90
2018-09-30T20:09:10.120Z,74.00
2018-09-30T20:11:39.590Z,74.20
2018-09-30T20:14:08.813Z,74.20
2018-09-30T20:16:37.853Z,74.20
2018-09-30T20:19:07.029Z,74.40
2018-09-30T20:21:36.119Z,74.80
2018-09-30T20:24:05.265Z,75.00
2018-09-30T20:26:34.313Z,75.30
2018-09-30T20:29:03.373Z,75.50
2018-09-30T20:31:32.839Z,75.60
2018-09-30T20:34:01.823Z,75.70
2018-09-30T20:36:30.815Z,75.90
2018-09-30T20:38:59.887Z,75.90
2018-09-30T20:41:28.882Z,75.90
2018-09-30T20:43:58.146Z,76.00
2018-09-30T20:46:27.224Z,76.20
2018-09-30T20:48:56.590Z,76.30
2018-09-30T20:51:25.674Z,76.60
2018-09-30T20:53:54.756Z,76.80
2018-09-30T20:56:23.786Z,76.90
2018-09-30T20:58:52.877Z,77.00
2018-09-30T21:01:22.018Z,77.10
2018-09-30T21:03:51.123Z,77.20
2018-09-30T21:06:30.191Z,77.30
2018-09-30T21:08:59.261Z,77.30
2018-09-30T21:11:28.602Z,77.30
2018-09-30T21:13:57.962Z,77.40
2018-09-30T21:16:27.098Z,77.50
2018-09-30T21:18:56.142Z,77.90
2018-09-30T21:21:27.373Z,78.10
2018-09-30T21:23:56.446Z,78.10
2018-09-30T21:26:25.570Z,78.90
2018-09-30T21:28:54.635Z,78.10
2018-09-30T21:31:23.725Z,78.10
2018-09-30T21:33:52.837Z,78.10
2018-09-30T21:36:21.994Z,78.10
2018-09-30T21:38:51.018Z,78.10
2018-09-30T21:41:20.161Z,78.30
2018-09-30T21:43:49.242Z,78.30
2018-09-30T21:46:18.276Z,79.30
2018-09-30T21:48:47.479Z,79.30
2018-09-30T21:51:16.697Z,79.40
2018-09-30T21:53:45.714Z,79.70
2018-09-30T21:56:14.939Z,79.80
2018-09-30T21:58:43.969Z,79.80
2018-09-30T22:01:13.117Z,80.00
2018-09-30T22:03:42.177Z,80.00
2018-09-30T22:06:12.826Z,80.10
2018-09-30T22:08:41.856Z,80.20
2018-09-30T22:11:11.148Z,80.10
2018-09-30T22:13:40.196Z,80.20
2018-09-30T22:16:09.278Z,80.20
2018-09-30T22:18:38.728Z,80.30
2018-09-30T22:21:07.902Z,80.40
2018-09-30T22:23:36.925Z,80.50
2018-09-30T22:26:05.989Z,80.40
2018-09-30T22:28:35.034Z,80.70
2018-09-30T22:31:04.216Z,80.60
2018-09-30T22:33:33.305Z,80.90
2018-09-30T22:36:02.325Z,81.00
2018-09-30T22:38:31.392Z,81.00
2018-09-30T22:41:16.302Z,81.20
2018-09-30T22:43:45.381Z,81.40
2018-09-30T22:46:14.491Z,81.50
2018-09-30T22:48:43.498Z,81.60
2018-09-30T22:51:12.805Z,81.60
2018-09-30T22:53:41.833Z,81.60
2018-09-30T22:56:10.951Z,81.60
2018-09-30T22:58:40.034Z,81.80
2018-09-30T23:01:09.110Z,81.90
2018-09-30T23:03:38.216Z,82.00
2018-09-30T23:06:07.522Z,82.10
2018-09-30T23:08:36.513Z,82.10
2018-09-30T23:11:05.634Z,82.00
2018-09-30T23:13:34.781Z,82.00
2018-09-30T23:16:03.836Z,82.00
2018-09-30T23:18:32.887Z,82.20
2018-09-30T23:21:02.293Z,82.30
2018-09-30T23:23:31.379Z,82.50
2018-09-30T23:26:00.486Z,82.40
2018-09-30T23:28:29.514Z,82.50
2018-09-30T23:30:58.589Z,82.50
2018-09-30T23:33:27.650Z,82.70
2018-09-30T23:35:56.729Z,82.80
2018-09-30T23:38:25.823Z,82.90
2018-09-30T23:40:54.921Z,82.90
2018-09-30T23:43:24.008Z,82.80
2018-09-30T23:45:53.132Z,83.10
2018-09-30T23:48:22.209Z,83.20
2018-09-30T23:50:51.362Z,83.20
2018-09-30T23:53:20.410Z,83.20
2018-09-30T23:55:49.762Z,83.30
2018-09-30T23:58:18.821Z,83.30
